sensor_id;sensor_type;location;lat;lon;timestamp;pressure;altitude;pressure_sealevel;temperature;humidity
33155;BME280;19511;42.682;23.332;2023-04-03T00:03:50;94524.72;;;7.34;100.00
33155;BME280;19511;42.682;23.332;2023-04-03T00:06:17;94540.41;;;7.41;100.00
33155;BME280;19511;42.682;23.332;2023-04-03T00:08:42;94536.47;;;7.42;100.00
33155;BME280;19511;42.682;23.332;2023-04-03T00:11:09;94521.28;;;7.19;100.00
33155;BME280;19511;42.682;23.332;2023-04-03T00:13:35;94476.84;;;6.72;100.00
33155;BME280;19511;42.682;23.332;2023-04-03T00:16:01;94534.81;;;6.96;100.00
33155;BME280;19511;42.682;23.332;2023-04-03T00:18:29;94529.28;;;6.99;100.00
33155;BME280;19511;42.682;23.332;2023-04-03T00:20:55;94519.06;;;7.00;100.00
33155;BME280;19511;42.682;23.332;2023-04-03T00:23:20;94486.97;;;6.82;100.00
33155;BME280;19511;42.682;23.332;2023-04-03T00:25:46;94520.66;;;7.01;100.00
33155;BME280;19511;42.682;23.332;2023-04-03T00:28:11;94516.75;;;6.95;100.00
33155;BME280;19511;42.682;23.332;2023-04-03T00:30:39;94522.59;;;7.00;100.00
33155;BME280;19511;42.682;23.332;2023-04-03T00:33:09;94529.66;;;7.01;100.00
33155;BME280;19511;42.682;23.332;2023-04-03T00:35:36;94528.09;;;7.00;100.00
33155;BME280;19511;42.682;23.332;2023-04-03T00:38:02;94490.91;;;6.78;100.00
33155;BME280;19511;42.682;23.332;2023-04-03T00:40:37;94510.53;;;6.83;100.00
33155;BME280;19511;42.682;23.332;2023-04-03T00:43:13;94524.25;;;6.87;100.00
33155;BME280;19511;42.682;23.332;2023-04-03T00:45:41;94512.16;;;6.70;100.00
33155;BME280;19511;42.682;23.332;2023-04-03T00:48:32;94485.56;;;6.52;100.00
33155;BME280;19511;42.682;23.332;2023-04-03T00:50:57;94520.03;;;6.68;100.00
33155;BME280;19511;42.682;23.332;2023-04-03T00:53:50;94433.63;;;5.84;100.00
33155;BME280;19511;42.682;23.332;2023-04-03T00:56:25;94526.84;;;6.31;100.00
33155;BME280;19511;42.682;23.332;2023-04-03T00:59:02;94414.53;;;5.51;100.00
33155;BME280;19511;42.682;23.332;2023-04-03T01:01:30;94459.19;;;5.63;100.00
33155;BME280;19511;42.682;23.332;2023-04-03T01:03:56;94534.75;;;6.14;100.00
33155;BME280;19511;42.682;23.332;2023-04-03T01:06:26;94524.97;;;6.13;100.00
33155;BME280;19511;42.682;23.332;2023-04-03T01:08:56;94538.66;;;6.28;100.00
33155;BME280;19511;42.682;23.332;2023-04-03T01:11:22;94467.75;;;5.86;100.00
33155;BME280;19511;42.682;23.332;2023-04-03T01:13:48;94538.22;;;6.36;100.00
33155;BME280;19511;42.682;23.332;2023-04-03T01:16:18;94536.59;;;6.50;100.00
33155;BME280;19511;42.682;23.332;2023-04-03T01:18:44;94487.31;;;6.10;100.00
33155;BME280;19511;42.682;23.332;2023-04-03T01:21:19;94549.97;;;6.44;100.00
33155;BME280;19511;42.682;23.332;2023-04-03T01:26:33;94540.47;;;6.60;100.00
33155;BME280;19511;42.682;23.332;2023-04-03T01:28:59;94524.41;;;6.54;100.00
33155;BME280;19511;42.682;23.332;2023-04-03T01:31:30;94540.88;;;6.65;100.00
33155;BME280;19511;42.682;23.332;2023-04-03T01:33:57;94549.16;;;6.47;100.00
33155;BME280;19511;42.682;23.332;2023-04-03T01:36:28;94536.66;;;6.35;100.00
33155;BME280;19511;42.682;23.332;2023-04-03T01:38:55;94530.38;;;6.35;100.00
33155;BME280;19511;42.682;23.332;2023-04-03T01:41:22;94535.09;;;6.31;100.00
33155;BME280;19511;42.682;23.332;2023-04-03T01:43:51;94540.63;;;6.27;100.00
33155;BME280;19511;42.682;23.332;2023-04-03T01:46:17;94535.97;;;6.13;100.00
33155;BME280;19511;42.682;23.332;2023-04-03T01:48:48;94539.84;;;6.19;100.00
33155;BME280;19511;42.682;23.332;2023-04-03T01:51:16;94483.44;;;5.75;100.00
33155;BME280;19511;42.682;23.332;2023-04-03T01:53:42;94523.41;;;5.94;100.00
33155;BME280;19511;42.682;23.332;2023-04-03T01:56:07;94508.53;;;5.77;100.00
33155;BME280;19511;42.682;23.332;2023-04-03T01:58:33;94450.59;;;5.43;100.00
33155;BME280;19511;42.682;23.332;2023-04-03T02:00:59;94550.06;;;5.97;100.00
33155;BME280;19511;42.682;23.332;2023-04-03T02:03:24;94549.31;;;5.93;100.00
33155;BME280;19511;42.682;23.332;2023-04-03T02:05:50;94537.16;;;5.87;100.00
33155;BME280;19511;42.682;23.332;2023-04-03T02:08:18;94547.34;;;5.83;100.00
33155;BME280;19511;42.682;23.332;2023-04-03T02:10:50;94523.47;;;5.47;100.00
33155;BME280;19511;42.682;23.332;2023-04-03T02:13:16;94548.16;;;5.47;100.00
33155;BME280;19511;42.682;23.332;2023-04-03T02:15:42;94535.22;;;5.22;100.00
33155;BME280;19511;42.682;23.332;2023-04-03T02:18:07;94551.66;;;5.37;100.00
33155;BME280;19511;42.682;23.332;2023-04-03T02:20:39;94542.28;;;5.23;100.00
33155;BME280;19511;42.682;23.332;2023-04-03T02:23:04;94554.41;;;5.37;100.00
33155;BME280;19511;42.682;23.332;2023-04-03T02:25:31;94527.78;;;5.19;100.00
33155;BME280;19511;42.682;23.332;2023-04-03T02:27:57;94536.00;;;5.12;100.00
33155;BME280;19511;42.682;23.332;2023-04-03T02:30:22;94526.19;;;5.15;100.00
33155;BME280;19511;42.682;23.332;2023-04-03T02:32:48;94532.84;;;5.32;100.00
33155;BME280;19511;42.682;23.332;2023-04-03T02:35:13;94528.16;;;5.43;100.00
33155;BME280;19511;42.682;23.332;2023-04-03T02:37:39;94413.81;;;4.71;100.00
33155;BME280;19511;42.682;23.332;2023-04-03T02:40:08;94528.94;;;5.33;100.00
33155;BME280;19511;42.682;23.332;2023-04-03T02:42:34;94525.41;;;5.25;100.00
33155;BME280;19511;42.682;23.332;2023-04-03T02:44:59;94520.72;;;5.18;100.00
33155;BME280;19511;42.682;23.332;2023-04-03T02:47:26;94529.75;;;5.30;100.00
33155;BME280;19511;42.682;23.332;2023-04-03T02:49:52;94525.81;;;5.38;100.00
33155;BME280;19511;42.682;23.332;2023-04-03T02:52:18;94422.44;;;4.70;100.00
33155;BME280;19511;42.682;23.332;2023-04-03T02:54:43;94527.38;;;5.39;100.00
33155;BME280;19511;42.682;23.332;2023-04-03T02:57:08;94511.34;;;5.41;100.00
33155;BME280;19511;42.682;23.332;2023-04-03T02:59:38;94516.00;;;5.37;100.00
33155;BME280;19511;42.682;23.332;2023-04-03T03:02:07;94514.44;;;5.43;100.00
33155;BME280;19511;42.682;23.332;2023-04-03T03:04:33;94499.97;;;5.35;100.00
33155;BME280;19511;42.682;23.332;2023-04-03T03:06:59;94498.38;;;5.38;100.00
33155;BME280;19511;42.682;23.332;2023-04-03T03:09:33;94512.88;;;5.56;100.00
33155;BME280;19511;42.682;23.332;2023-04-03T03:11:58;94507.78;;;5.66;100.00
33155;BME280;19511;42.682;23.332;2023-04-03T03:14:24;94505.44;;;5.68;100.00
33155;BME280;19511;42.682;23.332;2023-04-03T03:16:52;94499.94;;;5.53;100.00
33155;BME280;19511;42.682;23.332;2023-04-03T03:19:21;94494.47;;;5.39;100.00
33155;BME280;19511;42.682;23.332;2023-04-03T03:21:47;94458.44;;;5.01;100.00
33155;BME280;19511;42.682;23.332;2023-04-03T03:24:12;94503.50;;;5.14;100.00
33155;BME280;19511;42.682;23.332;2023-04-03T03:26:38;94507.41;;;5.17;100.00
33155;BME280;19511;42.682;23.332;2023-04-03T03:29:03;94514.06;;;5.12;100.00
33155;BME280;19511;42.682;23.332;2023-04-03T03:31:29;94507.75;;;4.90;100.00
33155;BME280;19511;42.682;23.332;2023-04-03T03:33:55;94507.34;;;4.81;100.00
33155;BME280;19511;42.682;23.332;2023-04-03T03:36:24;94510.09;;;4.81;100.00
33155;BME280;19511;42.682;23.332;2023-04-03T03:38:49;94417.59;;;4.09;100.00
33155;BME280;19511;42.682;23.332;2023-04-03T03:41:15;94513.22;;;4.65;100.00
33155;BME280;19511;42.682;23.332;2023-04-03T03:43:40;94508.06;;;4.45;100.00
33155;BME280;19511;42.682;23.332;2023-04-03T03:46:10;94521.00;;;4.48;100.00
33155;BME280;19511;42.682;23.332;2023-04-03T03:48:39;94500.59;;;4.38;100.00
33155;BME280;19511;42.682;23.332;2023-04-03T03:51:04;94495.91;;;4.32;100.00
33155;BME280;19511;42.682;23.332;2023-04-03T03:53:30;94497.78;;;4.24;100.00
33155;BME280;19511;42.682;23.332;2023-04-03T03:55:56;94500.53;;;4.17;100.00
33155;BME280;19511;42.682;23.332;2023-04-03T03:58:22;94523.28;;;4.39;100.00
33155;BME280;19511;42.682;23.332;2023-04-03T04:00:50;94520.59;;;4.57;100.00
33155;BME280;19511;42.682;23.332;2023-04-03T04:03:16;94506.16;;;4.64;100.00
33155;BME280;19511;42.682;23.332;2023-04-03T04:05:41;94511.59;;;4.53;100.00
33155;BME280;19511;42.682;23.332;2023-04-03T04:08:09;94523.38;;;4.68;100.00
33155;BME280;19511;42.682;23.332;2023-04-03T04:10:38;94510.06;;;4.63;100.00
33155;BME280;19511;42.682;23.332;2023-04-03T04:13:04;94423.47;;;4.04;100.00
33155;BME280;19511;42.682;23.332;2023-04-03T04:15:33;94512.03;;;4.69;100.00
33155;BME280;19511;42.682;23.332;2023-04-03T04:17:59;94525.75;;;4.77;100.00
33155;BME280;19511;42.682;23.332;2023-04-03T04:20:25;94522.59;;;4.71;100.00
33155;BME280;19511;42.682;23.332;2023-04-03T04:22:54;94529.63;;;4.68;100.00
33155;BME280;19511;42.682;23.332;2023-04-03T04:25:19;94471.66;;;4.41;100.00
33155;BME280;19511;42.682;23.332;2023-04-03T04:27:45;94537.53;;;4.92;100.00
33155;BME280;19511;42.682;23.332;2023-04-03T04:30:11;94517.16;;;4.93;100.00
33155;BME280;19511;42.682;23.332;2023-04-03T04:32:36;94515.63;;;5.06;100.00
33155;BME280;19511;42.682;23.332;2023-04-03T04:35:02;94510.53;;;5.01;100.00
33155;BME280;19511;42.682;23.332;2023-04-03T04:37:29;94536.75;;;5.13;100.00
33155;BME280;19511;42.682;23.332;2023-04-03T04:39:54;94526.59;;;5.06;100.00
33155;BME280;19511;42.682;23.332;2023-04-03T04:42:23;94454.88;;;4.50;100.00
33155;BME280;19511;42.682;23.332;2023-04-03T04:44:49;94520.28;;;4.80;100.00
33155;BME280;19511;42.682;23.332;2023-04-03T04:47:14;94542.25;;;5.09;100.00
33155;BME280;19511;42.682;23.332;2023-04-03T04:49:40;94539.13;;;5.11;100.00
33155;BME280;19511;42.682;23.332;2023-04-03T04:52:08;94558.69;;;5.09;100.00
33155;BME280;19511;42.682;23.332;2023-04-03T04:54:33;94557.50;;;5.10;100.00
33155;BME280;19511;42.682;23.332;2023-04-03T04:56:59;94553.22;;;5.13;100.00
33155;BME280;19511;42.682;23.332;2023-04-03T04:59:24;94550.13;;;5.32;100.00
33155;BME280;19511;42.682;23.332;2023-04-03T05:01:50;94545.41;;;5.29;100.00
33155;BME280;19511;42.682;23.332;2023-04-03T05:04:16;94560.66;;;5.27;100.00
33155;BME280;19511;42.682;23.332;2023-04-03T05:06:41;94532.84;;;5.14;100.00
33155;BME280;19511;42.682;23.332;2023-04-03T05:09:07;94553.25;;;5.31;100.00
33155;BME280;19511;42.682;23.332;2023-04-03T05:11:32;94460.75;;;4.63;100.00
33155;BME280;19511;42.682;23.332;2023-04-03T05:13:58;94579.91;;;5.45;100.00
33155;BME280;19511;42.682;23.332;2023-04-03T05:16:23;94560.28;;;5.39;100.00
33155;BME280;19511;42.682;23.332;2023-04-03T05:18:49;94568.91;;;5.48;100.00
33155;BME280;19511;42.682;23.332;2023-04-03T05:21:14;94577.16;;;5.52;100.00
33155;BME280;19511;42.682;23.332;2023-04-03T05:23:40;94588.53;;;5.58;100.00
33155;BME280;19511;42.682;23.332;2023-04-03T05:26:06;94473.31;;;4.93;100.00
33155;BME280;19511;42.682;23.332;2023-04-03T05:28:31;94575.97;;;5.71;100.00
33155;BME280;19511;42.682;23.332;2023-04-03T05:30:58;94579.50;;;5.93;100.00
33155;BME280;19511;42.682;23.332;2023-04-03T05:33:28;94577.50;;;6.12;100.00
33155;BME280;19511;42.682;23.332;2023-04-03T05:35:54;94559.47;;;6.18;100.00
33155;BME280;19511;42.682;23.332;2023-04-03T05:38:21;94579.03;;;6.31;100.00
33155;BME280;19511;42.682;23.332;2023-04-03T05:40:48;94543.75;;;6.22;100.00
33155;BME280;19511;42.682;23.332;2023-04-03T05:43:13;94525.34;;;6.15;100.00
33155;BME280;19511;42.682;23.332;2023-04-03T05:45:39;94574.31;;;6.38;100.00
33155;BME280;19511;42.682;23.332;2023-04-03T05:48:04;94549.22;;;6.33;100.00
33155;BME280;19511;42.682;23.332;2023-04-03T05:50:30;94545.66;;;6.36;100.00
33155;BME280;19511;42.682;23.332;2023-04-03T05:52:57;94557.41;;;6.51;100.00
33155;BME280;19511;42.682;23.332;2023-04-03T05:55:24;94567.19;;;6.63;100.00
33155;BME280;19511;42.682;23.332;2023-04-03T05:57:52;94565.19;;;6.67;100.00
33155;BME280;19511;42.682;23.332;2023-04-03T06:00:17;94466.50;;;6.16;100.00
33155;BME280;19511;42.682;23.332;2023-04-03T06:02:43;94462.59;;;6.14;100.00
33155;BME280;19511;42.682;23.332;2023-04-03T06:05:09;94563.59;;;6.73;100.00
33155;BME280;19511;42.682;23.332;2023-04-03T06:07:36;94538.13;;;6.62;100.00
33155;BME280;19511;42.682;23.332;2023-04-03T06:10:06;94549.44;;;6.75;100.00
33155;BME280;19511;42.682;23.332;2023-04-03T06:12:31;94540.06;;;6.68;100.00
33155;BME280;19511;42.682;23.332;2023-04-03T06:14:57;94431.66;;;5.99;100.00
33155;BME280;19511;42.682;23.332;2023-04-03T06:17:26;94435.94;;;6.07;100.00
33155;BME280;19511;42.682;23.332;2023-04-03T06:19:57;94532.53;;;6.80;100.00
33155;BME280;19511;42.682;23.332;2023-04-03T06:22:23;94527.44;;;6.82;100.00
33155;BME280;19511;42.682;23.332;2023-04-03T06:24:51;94528.59;;;6.84;100.00
33155;BME280;19511;42.682;23.332;2023-04-03T06:27:16;94524.28;;;6.80;100.00
33155;BME280;19511;42.682;23.332;2023-04-03T06:29:42;94540.38;;;6.85;100.00
33155;BME280;19511;42.682;23.332;2023-04-03T06:32:15;94551.25;;;7.03;100.00
33155;BME280;19511;42.682;23.332;2023-04-03T06:34:41;94538.53;;;7.24;100.00
33155;BME280;19511;42.682;23.332;2023-04-03T06:37:21;94552.13;;;7.49;100.00
33155;BME280;19511;42.682;23.332;2023-04-03T06:39:47;94463.81;;;6.83;100.00
33155;BME280;19511;42.682;23.332;2023-04-03T06:42:13;94545.09;;;7.48;100.00
33155;BME280;19511;42.682;23.332;2023-04-03T06:44:42;94551.75;;;7.50;100.00
33155;BME280;19511;42.682;23.332;2023-04-03T06:47:11;94561.84;;;7.64;100.00
33155;BME280;19511;42.682;23.332;2023-04-03T06:49:37;94555.13;;;7.69;100.00
33155;BME280;19511;42.682;23.332;2023-04-03T06:52:03;94537.81;;;7.72;100.00
33155;BME280;19511;42.682;23.332;2023-04-03T06:54:31;94556.09;;;7.90;100.00
33155;BME280;19511;42.682;23.332;2023-04-03T06:57:00;94537.56;;;7.52;100.00
33155;BME280;19511;42.682;23.332;2023-04-03T06:59:26;94557.13;;;7.65;100.00
33155;BME280;19511;42.682;23.332;2023-04-03T07:01:52;94570.00;;;7.79;100.00
33155;BME280;19511;42.682;23.332;2023-04-03T07:04:17;94554.56;;;7.89;100.00
33155;BME280;19511;42.682;23.332;2023-04-03T07:06:46;94541.53;;;7.93;100.00
33155;BME280;19511;42.682;23.332;2023-04-03T07:09:13;94556.22;;;8.21;100.00
33155;BME280;19511;42.682;23.332;2023-04-03T07:11:51;94552.56;;;8.31;100.00
33155;BME280;19511;42.682;23.332;2023-04-03T07:14:25;94531.97;;;8.43;100.00
33155;BME280;19511;42.682;23.332;2023-04-03T07:16:50;94535.63;;;8.67;100.00
33155;BME280;19511;42.682;23.332;2023-04-03T07:19:17;94435.94;;;8.10;100.00
33155;BME280;19511;42.682;23.332;2023-04-03T07:21:44;94534.22;;;8.86;100.00
33155;BME280;19511;42.682;23.332;2023-04-03T07:24:10;94536.00;;;9.00;100.00
33155;BME280;19511;42.682;23.332;2023-04-03T07:26:35;94529.13;;;9.15;100.00
33155;BME280;19511;42.682;23.332;2023-04-03T07:29:02;94420.91;;;8.49;100.00
33155;BME280;19511;42.682;23.332;2023-04-03T07:31:29;94428.50;;;8.69;100.00
33155;BME280;19511;42.682;23.332;2023-04-03T07:33:54;94442.69;;;8.95;100.00
33155;BME280;19511;42.682;23.332;2023-04-03T07:36:23;94525.81;;;9.52;100.00
33155;BME280;19511;42.682;23.332;2023-04-03T07:38:49;94527.47;;;9.45;100.00
33155;BME280;19511;42.682;23.332;2023-04-03T07:41:16;94515.13;;;9.54;100.00
33155;BME280;19511;42.682;23.332;2023-04-03T07:43:45;94520.03;;;9.66;100.00
33155;BME280;19511;42.682;23.332;2023-04-03T07:46:12;94451.69;;;9.26;100.00
33155;BME280;19511;42.682;23.332;2023-04-03T07:48:40;94512.00;;;9.75;100.00
33155;BME280;19511;42.682;23.332;2023-04-03T07:51:06;94493.34;;;9.59;100.00
33155;BME280;19511;42.682;23.332;2023-04-03T07:53:31;94473.94;;;9.63;100.00
33155;BME280;19511;42.682;23.332;2023-04-03T07:55:58;94491.34;;;9.84;100.00
33155;BME280;19511;42.682;23.332;2023-04-03T07:58:25;94516.88;;;9.68;100.00
33155;BME280;19511;42.682;23.332;2023-04-03T08:00:51;94505.56;;;9.58;100.00
33155;BME280;19511;42.682;23.332;2023-04-03T08:03:16;94411.63;;;8.91;100.00
33155;BME280;19511;42.682;23.332;2023-04-03T08:05:44;94464.28;;;9.00;100.00
33155;BME280;19511;42.682;23.332;2023-04-03T08:08:11;94497.69;;;9.33;100.00
33155;BME280;19511;42.682;23.332;2023-04-03T08:10:37;94501.31;;;9.54;100.00
33155;BME280;19511;42.682;23.332;2023-04-03T08:13:07;94484.03;;;9.50;100.00
33155;BME280;19511;42.682;23.332;2023-04-03T08:15:36;94493.94;;;9.71;100.00
33155;BME280;19511;42.682;23.332;2023-04-03T08:18:03;94487.59;;;9.94;100.00
33155;BME280;19511;42.682;23.332;2023-04-03T08:20:28;94486.34;;;9.99;100.00
33155;BME280;19511;42.682;23.332;2023-04-03T08:22:54;94400.88;;;9.47;100.00
33155;BME280;19511;42.682;23.332;2023-04-03T08:25:20;94483.81;;;10.08;100.00
33155;BME280;19511;42.682;23.332;2023-04-03T08:27:46;94406.66;;;9.53;100.00
33155;BME280;19511;42.682;23.332;2023-04-03T08:30:12;94472.75;;;10.08;100.00
33155;BME280;19511;42.682;23.332;2023-04-03T08:32:40;94477.94;;;10.06;100.00
33155;BME280;19511;42.682;23.332;2023-04-03T08:35:08;94488.44;;;10.15;100.00
33155;BME280;19511;42.682;23.332;2023-04-03T08:37:37;94486.47;;;10.35;100.00
33155;BME280;19511;42.682;23.332;2023-04-03T08:40:12;94473.50;;;10.52;100.00
33155;BME280;19511;42.682;23.332;2023-04-03T08:45:27;94475.16;;;10.86;100.00
33155;BME280;19511;42.682;23.332;2023-04-03T08:48:06;94459.50;;;10.80;100.00
33155;BME280;19511;42.682;23.332;2023-04-03T08:51:02;94459.53;;;10.96;100.00
33155;BME280;19511;42.682;23.332;2023-04-03T08:53:33;94442.56;;;10.94;100.00
33155;BME280;19511;42.682;23.332;2023-04-03T08:56:08;94456.72;;;11.16;100.00
33155;BME280;19511;42.682;23.332;2023-04-03T08:58:56;94460.63;;;11.35;100.00
33155;BME280;19511;42.682;23.332;2023-04-03T09:01:26;94447.09;;;11.37;100.00
33155;BME280;19511;42.682;23.332;2023-04-03T09:03:53;94448.50;;;11.62;100.00
33155;BME280;19511;42.682;23.332;2023-04-03T09:06:21;94444.94;;;11.62;100.00
33155;BME280;19511;42.682;23.332;2023-04-03T09:11:51;94438.19;;;11.46;100.00
33155;BME280;19511;42.682;23.332;2023-04-03T09:16:54;94422.88;;;11.58;100.00
33155;BME280;19511;42.682;23.332;2023-04-03T09:22:18;94415.66;;;12.23;100.00
33155;BME280;19511;42.682;23.332;2023-04-03T09:25:20;94415.19;;;12.24;100.00
33155;BME280;19511;42.682;23.332;2023-04-03T09:27:49;94401.63;;;12.14;100.00
33155;BME280;19511;42.682;23.332;2023-04-03T09:30:17;94405.88;;;12.31;100.00
33155;BME280;19511;42.682;23.332;2023-04-03T09:32:45;94308.47;;;11.74;100.00
33155;BME280;19511;42.682;23.332;2023-04-03T09:35:30;94398.47;;;12.28;100.00
33155;BME280;19511;42.682;23.332;2023-04-03T09:38:17;94403.69;;;12.39;100.00
33155;BME280;19511;42.682;23.332;2023-04-03T09:41:05;94400.72;;;12.46;100.00
33155;BME280;19511;42.682;23.332;2023-04-03T09:43:34;94400.69;;;12.33;100.00
33155;BME280;19511;42.682;23.332;2023-04-03T09:46:30;94382.03;;;12.34;100.00
33155;BME280;19511;42.682;23.332;2023-04-03T09:49:01;94405.63;;;12.55;100.00
33155;BME280;19511;42.682;23.332;2023-04-03T09:51:28;94394.97;;;12.53;100.00
33155;BME280;19511;42.682;23.332;2023-04-03T09:53:55;94319.34;;;12.11;100.00
33155;BME280;19511;42.682;23.332;2023-04-03T09:56:27;94381.00;;;12.70;100.00
33155;BME280;19511;42.682;23.332;2023-04-03T10:04:25;94382.88;;;12.60;100.00
33155;BME280;19511;42.682;23.332;2023-04-03T10:07:02;94373.22;;;12.65;100.00
33155;BME280;19511;42.682;23.332;2023-04-03T10:09:28;94382.09;;;12.60;100.00
33155;BME280;19511;42.682;23.332;2023-04-03T10:14:32;94359.56;;;12.45;100.00
33155;BME280;19511;42.682;23.332;2023-04-03T10:17:16;94379.53;;;12.52;100.00
33155;BME280;19511;42.682;23.332;2023-04-03T10:19:58;94368.28;;;12.30;100.00
33155;BME280;19511;42.682;23.332;2023-04-03T10:23:12;94386.09;;;12.46;100.00
33155;BME280;19511;42.682;23.332;2023-04-03T10:25:24;94368.44;;;12.39;100.00
33155;BME280;19511;42.682;23.332;2023-04-03T10:28:02;94377.41;;;12.31;100.00
33155;BME280;19511;42.682;23.332;2023-04-03T10:33:25;94365.28;;;12.12;100.00
33155;BME280;19511;42.682;23.332;2023-04-03T10:36:12;94359.34;;;11.97;100.00
33155;BME280;19511;42.682;23.332;2023-04-03T10:38:50;94356.50;;;12.13;100.00
33155;BME280;19511;42.682;23.332;2023-04-03T10:46:51;94346.34;;;12.36;100.00
33155;BME280;19511;42.682;23.332;2023-04-03T10:51:46;94323.59;;;12.28;100.00
33155;BME280;19511;42.682;23.332;2023-04-03T10:54:26;94349.78;;;12.53;100.00
33155;BME280;19511;42.682;23.332;2023-04-03T10:57:01;94341.72;;;12.46;100.00
33155;BME280;19511;42.682;23.332;2023-04-03T10:59:51;94337.13;;;12.26;100.00
33155;BME280;19511;42.682;23.332;2023-04-03T11:02:32;94345.69;;;12.45;100.00
33155;BME280;19511;42.682;23.332;2023-04-03T11:05:13;94345.47;;;12.52;100.00
33155;BME280;19511;42.682;23.332;2023-04-03T11:07:45;94346.69;;;12.51;100.00
33155;BME280;19511;42.682;23.332;2023-04-03T11:10:17;94276.56;;;12.12;100.00
33155;BME280;19511;42.682;23.332;2023-04-03T11:12:52;94357.88;;;12.34;100.00
33155;BME280;19511;42.682;23.332;2023-04-03T11:15:29;94364.19;;;12.22;100.00
33155;BME280;19511;42.682;23.332;2023-04-03T11:18:02;94353.94;;;12.19;100.00
33155;BME280;19511;42.682;23.332;2023-04-03T11:20:32;94273.00;;;11.69;100.00
33155;BME280;19511;42.682;23.332;2023-04-03T11:23:24;94360.47;;;11.99;100.00
33155;BME280;19511;42.682;23.332;2023-04-03T11:25:53;94357.19;;;11.88;100.00
33155;BME280;19511;42.682;23.332;2023-04-03T11:28:20;94348.97;;;11.55;100.00
33155;BME280;19511;42.682;23.332;2023-04-03T11:36:10;94362.69;;;11.29;100.00
33155;BME280;19511;42.682;23.332;2023-04-03T11:38:47;94327.06;;;10.98;100.00
33155;BME280;19511;42.682;23.332;2023-04-03T11:41:14;94342.44;;;10.99;100.00
33155;BME280;19511;42.682;23.332;2023-04-03T11:43:56;94351.44;;;11.03;100.00
33155;BME280;19511;42.682;23.332;2023-04-03T11:46:22;94363.31;;;11.04;100.00
33155;BME280;19511;42.682;23.332;2023-04-03T11:48:49;94303.91;;;10.59;100.00
33155;BME280;19511;42.682;23.332;2023-04-03T11:53:41;94369.59;;;10.71;100.00
33155;BME280;19511;42.682;23.332;2023-04-03T12:01:47;94365.34;;;10.50;100.00
33155;BME280;19511;42.682;23.332;2023-04-03T12:04:16;94360.94;;;10.53;100.00
33155;BME280;19511;42.682;23.332;2023-04-03T12:06:48;94378.88;;;10.44;100.00
33155;BME280;19511;42.682;23.332;2023-04-03T12:15:59;94378.53;;;10.22;100.00
33155;BME280;19511;42.682;23.332;2023-04-03T12:21:13;94300.28;;;9.48;100.00
33155;BME280;19511;42.682;23.332;2023-04-03T12:29:23;94351.47;;;9.73;100.00
33155;BME280;19511;42.682;23.332;2023-04-03T12:45:14;94336.84;;;9.32;100.00
33155;BME280;19511;42.682;23.332;2023-04-03T12:47:44;94256.44;;;8.90;100.00
33155;BME280;19511;42.682;23.332;2023-04-03T12:50:28;94336.41;;;9.58;100.00
33155;BME280;19511;42.682;23.332;2023-04-03T12:53:03;94342.03;;;9.51;100.00
33155;BME280;19511;42.682;23.332;2023-04-03T12:55:39;94326.69;;;9.50;100.00
33155;BME280;19511;42.682;23.332;2023-04-03T12:58:34;94329.53;;;9.46;100.00
33155;BME280;19511;42.682;23.332;2023-04-03T13:01:01;94332.97;;;9.30;100.00
33155;BME280;19511;42.682;23.332;2023-04-03T13:03:28;94332.38;;;9.19;100.00
33155;BME280;19511;42.682;23.332;2023-04-03T13:06:02;94271.59;;;8.78;100.00
33155;BME280;19511;42.682;23.332;2023-04-03T13:08:29;94339.44;;;9.20;100.00
33155;BME280;19511;42.682;23.332;2023-04-03T13:11:11;94334.75;;;9.17;100.00
33155;BME280;19511;42.682;23.332;2023-04-03T13:13:54;94334.66;;;9.00;100.00
33155;BME280;19511;42.682;23.332;2023-04-03T13:16:20;94299.91;;;8.82;100.00
33155;BME280;19511;42.682;23.332;2023-04-03T13:18:53;94326.25;;;9.07;100.00
33155;BME280;19511;42.682;23.332;2023-04-03T13:21:29;94338.16;;;9.04;100.00
33155;BME280;19511;42.682;23.332;2023-04-03T13:24:01;94334.31;;;8.98;100.00
33155;BME280;19511;42.682;23.332;2023-04-03T13:26:34;94332.91;;;8.86;100.00
33155;BME280;19511;42.682;23.332;2023-04-03T13:29:06;94312.59;;;8.76;100.00
33155;BME280;19511;42.682;23.332;2023-04-03T13:31:37;94326.03;;;8.98;100.00
33155;BME280;19511;42.682;23.332;2023-04-03T13:36:40;94323.16;;;8.81;100.00
33155;BME280;19511;42.682;23.332;2023-04-03T13:41:46;94325.47;;;8.59;100.00
33155;BME280;19511;42.682;23.332;2023-04-03T13:47:14;94328.69;;;8.54;100.00
33155;BME280;19511;42.682;23.332;2023-04-03T13:49:44;94312.94;;;8.55;100.00
33155;BME280;19511;42.682;23.332;2023-04-03T13:52:33;94314.56;;;8.52;100.00
33155;BME280;19511;42.682;23.332;2023-04-03T14:05:47;94321.69;;;8.49;100.00
33155;BME280;19511;42.682;23.332;2023-04-03T14:08:17;94192.25;;;7.64;100.00
33155;BME280;19511;42.682;23.332;2023-04-03T14:10:46;94309.09;;;8.48;100.00
33155;BME280;19511;42.682;23.332;2023-04-03T14:13:18;94308.41;;;8.41;100.00
33155;BME280;19511;42.682;23.332;2023-04-03T14:15:44;94257.25;;;8.12;100.00
33155;BME280;19511;42.682;23.332;2023-04-03T14:18:17;94294.31;;;8.35;100.00
33155;BME280;19511;42.682;23.332;2023-04-03T14:20:43;94301.59;;;8.49;100.00
33155;BME280;19511;42.682;23.332;2023-04-03T14:23:09;94302.94;;;8.37;100.00
33155;BME280;19511;42.682;23.332;2023-04-03T14:25:35;94300.19;;;8.37;100.00
33155;BME280;19511;42.682;23.332;2023-04-03T14:28:01;94298.56;;;8.40;100.00
33155;BME280;19511;42.682;23.332;2023-04-03T14:30:37;94291.78;;;8.48;100.00
33155;BME280;19511;42.682;23.332;2023-04-03T14:33:03;94291.63;;;8.59;100.00
33155;BME280;19511;42.682;23.332;2023-04-03T14:35:31;94193.28;;;8.01;100.00